Henrique Oliveira

Chefscout - Bahia
3 Dez 2028
Sonntag
Verarbeitung

Persönlichkeit

Anpassungsfähigkeit (8) Ehrgeiz (12) Kontroverse (16) Loyalität (4) Druck (13) Professionalität (6) Fairness (13) Temperament (2)

Profil

Trainerstil Demokratisch
Lizenz Kontinentale C
Entschlossenheit 13
Menschenführung 13
Motivation 7
Disziplin 11
Arbeitszufriedenheit
100%
Ermüdung
0%
Rolle Chefscout
Gehalt 70.3K p/W
Vertrag 14.03.2030

Leistung

Verhalten Gut
Trainingseffektivität
50%
Spielerentwicklung
45%
Verletzungsprävention
70%
Taktische Umsetzung
30%

Letzte Ereignisse

Empfahl ein Transferziel jetzt
Nahm an einer Scouting-Besprechung teil jetzt
Empfahl ein Transferziel jetzt
Spieler begutachtet jetzt
Spieler begutachtet jetzt
Spieler begutachtet jetzt
Spieler begutachtet jetzt
Spieler begutachtet jetzt

Aktuell beobachtet

425
Spieler Verein Status Fähigkeit Vertrauen Beobachtet Zuletzt beobachtet Letzte Stimme
Endrick Boca Juniors Aktiv 156 / 163 40% 8 01.12.2028 -
Guille Rosas Boca Juniors Aktiv 153 / 154 40% 9 01.12.2028 -
Francis Amuzu Atletico Goianiense Aktiv 130 / 131 40% 2 01.12.2028 -
Borja Sainz Udinese Aktiv 157 / 152 40% 9 30.11.2028 -
Bernardo Lima Porto Aktiv 119 / 129 40% 3 30.11.2028 -
Álex Valle Boca Juniors Aktiv 149 / 134 40% 9 30.11.2028 -
Adrien Truffert Flamengo Aktiv 164 / 155 40% 8 30.11.2028 -
Chris Rigg West Ham United Aktiv 139 / 160 40% 2 30.11.2028 -
Noah Markmann Esbjerg Aktiv 123 / 120 40% 1 30.11.2028 -
Iliman N'Diaye Everton Aktiv 163 / 157 40% 8 28.11.2028 -
Gonzalo Plata Nacional Aktiv 144 / 143 40% 11 28.11.2028 -
Alex Luna Instituto Aktiv 133 / 131 40% 2 28.11.2028 -
Kevin Zenón Boca Juniors Aktiv 141 / 136 40% 4 28.11.2028 -
Marcus Tavernier Bournemouth Aktiv 161 / 148 40% 4 28.11.2028 -
Babis Kostoulas Oxford United Aktiv 148 / 152 40% 3 28.11.2028 -
Malick Fofana Sunderland Aktiv 152 / 160 40% 2 26.11.2028 -
Kasey McAteer Barnsley Aktiv 140 / 133 40% 3 26.11.2028 -
Geovany Quenda Watford Aktiv 154 / 158 40% 13 26.11.2028 -
Chemsdine Talbi Sunderland Aktiv 158 / 160 40% 3 25.11.2028 -
Kaiki Cruzeiro Aktiv 140 / 130 40% 2 25.11.2028 -
Gustavo Neves Bragantino Aktiv 130 / 132 40% 2 25.11.2028 -
John Kennedy Corinthians Aktiv 136 / 132 40% 2 25.11.2028 -
Tiago Palacios Estudiantes Aktiv 137 / 129 40% 3 24.11.2028 -
Jonathan De Irastorza Independiente Aktiv 133 / 137 40% 3 24.11.2028 -
Gideon Manaseh Ikorodu City Aktiv 102 / 108 40% 4 23.11.2028 -
Trey Nyoni Rotherham United Aktiv 148 / 156 40% 3 23.11.2028 -
Salvador Blopá Wolverhampton Verhandlung 127 / 123 40% 1 23.11.2028 -
Martinelli Fluminense Aktiv 139 / 147 40% 10 22.11.2028 -
Brenden Aaronson Internacional Aktiv 156 / 140 40% 7 22.11.2028 -
Julio Enciso Aston Villa Aktiv 164 / 162 40% 2 22.11.2028 -
Nicolas Jackson Aston Villa Aktiv 157 / 167 40% 9 21.11.2028 -
Souffian El Karouani Al-Qadisiyah Aktiv 150 / 128 40% 5 21.11.2028 -
Jakub Kamiński Nacional Aktiv 149 / 143 40% 5 21.11.2028 -
Alexander Sandahl Spartak Myjava Aktiv 112 / 98 40% 1 21.11.2028 -
Ifeanyi Emmanuel Niger Tornadoes Aktiv 109 / 118 40% 1 21.11.2028 -
Jasper Torkildsen IK Start Aktiv 117 / 114 40% 1 21.11.2028 -
Miguel Figueiredo Benfica Verloren 132 / 137 40% 3 19.11.2028 -
Emile Smith Rowe Cardiff City Aktiv 158 / 145 40% 6 19.11.2028 -
Joel Ezra Enyimba Aktiv 95 / 95 40% 2 19.11.2028 -
Kiani Inge Groningen Aktiv 113 / 134 40% 1 19.11.2028 -
Ismaïla Sarr Crystal Palace Aktiv 160 / 146 40% 3 18.11.2028 -
Alejandro Garnacho Hull City Aktiv 159 / 174 40% 6 18.11.2028 -
Louis Page Leicester City Aktiv 135 / 152 40% 1 18.11.2028 -
Filipe Sousa Porto Aktiv 99 / 105 40% 1 18.11.2028 -
Ben Gannon Doak Charlton Athletic Aktiv 160 / 151 40% 8 17.11.2028 -
Facundo Buonanotte Bristol City Aktiv 152 / 153 40% 2 17.11.2028 -
Jaden Philogene Wolverhampton Aktiv 156 / 157 40% 6 16.11.2028 -
Daniel Banjaqui Benfica Aktiv 128 / 129 40% 2 15.11.2028 -
Andrija Bulatović Chamois Niortais Aktiv 140 / 150 40% 1 15.11.2028 -
Noa Mikić Imotski Aktiv 115 / 117 40% 1 15.11.2028 -
Allan CSKA Moscow Aktiv 150 / 143 40% 4 14.11.2028 -
Jayden Danns Bradford City Aktiv 149 / 136 40% 2 13.11.2028 -
Ryan Sessegnon Fulham Aktiv 149 / 162 40% 4 13.11.2028 -
Jaidon Anthony Derby County Aktiv 141 / 146 40% 5 12.11.2028 -
Juanlu Bournemouth Aktiv 162 / 146 40% 3 12.11.2028 -
Davinchi Getafe Aktiv 124 / 138 40% 2 12.11.2028 -
Snyder Brunell Seattle Sounders Aktiv 97 / 95 40% 1 12.11.2028 -
Pedro Baltika Aktiv 146 / 147 40% 1 11.11.2028 -
Rodrigo Gomes Wolverhampton Aktiv 147 / 147 40% 5 10.11.2028 -
Marcos Antonio Sport Recife Aktiv 147 / 151 40% 5 10.11.2028 -
Ayyoub Bouaddi Stoke City Aktiv 150 / 157 40% 3 10.11.2028 -
Tyler Fletcher Rotherham United Aktiv 123 / 130 40% 1 10.11.2028 -
Brennan Johnson Southampton Aktiv 158 / 159 40% 1 09.11.2028 -
Tino Livramento Newcastle United Aktiv 174 / 160 40% 11 08.11.2028 -
Jabes Saralegui Boca Juniors Aktiv 130 / 123 40% 4 07.11.2028 -
Carlos Palacios Boca Juniors Aktiv 132 / 138 40% 5 07.11.2028 -
Harvey Barnes Newcastle United Aktiv 161 / 143 40% 2 07.11.2028 -
Francisco Salerno Defensores Unidos Aktiv 116 / 105 40% 4 06.11.2028 -
Carlos Alcaraz Stoke City Aktiv 156 / 161 40% 4 06.11.2028 -
Facundo Vila Estudiantes Aktiv 115 / 109 40% 1 06.11.2028 -
Vincent Edafe Warri Wolves Aktiv 102 / 99 40% 1 06.11.2028 -
Tetê Grêmio Aktiv 129 / 134 40% 2 03.11.2028 -
Calebe Fortaleza Aktiv 136 / 130 40% 3 03.11.2028 -
Álvaro Barreal Atlético Mineiro Aktiv 139 / 137 40% 3 02.11.2028 -
Cristian Olivera Grêmio Aktiv 131 / 138 40% 1 02.11.2028 -
Vitinho Internacional Aktiv 135 / 118 40% 5 01.11.2028 -
Joaquín Gho Argentinos Juniors Aktiv 134 / 129 40% 1 01.11.2028 -
Evann Guessand Aston Villa Aktiv 151 / 149 40% 3 30.10.2028 -
Tyrick Mitchell Newcastle United Aktiv 162 / 165 40% 1 30.10.2028 -
Fábio Carvalho Brentford Aktiv 152 / 150 40% 5 29.10.2028 -
Maximiliano Araújo West Ham United Aktiv 161 / 155 40% 11 29.10.2028 -
Boubacar Kamara Aston Villa Aktiv 166 / 175 40% 8 27.10.2028 -
Gabriel Martinelli Arsenal Aktiv 170 / 181 40% 5 25.10.2028 -
Alan Lescano Argentinos Juniors Aktiv 137 / 126 40% 4 23.10.2028 -
Rafael Mota Sporting CP Aktiv 116 / 136 40% 1 22.10.2028 -
Cristian Medina Botafogo Aktiv 130 / 121 40% 1 15.10.2028 -
Moisés Caicedo Chelsea Aktiv 180 / 161 40% 13 14.10.2028 -
Danilo Botafogo Aktiv 150 / 145 40% 11 12.10.2028 -
Jack McGlynn Stoke City Aktiv 149 / 135 40% 1 12.10.2028 -
Mateus Fernandes Sheffield United Aktiv 153 / 151 40% 1 11.10.2028 -
James McAtee Everton Aktiv 155 / 167 40% 1 10.10.2028 -
Reece James Chelsea Aktiv 183 / 170 40% 4 09.10.2028 -
Santiago Montiel Independiente Aktiv 132 / 128 40% 1 08.10.2028 -
Gastón Martirena Racing Club Aktiv 126 / 131 40% 1 08.10.2028 -
Mikkel Damsgaard Brentford Aktiv 151 / 146 40% 3 06.10.2028 -
Matko Miljevic Racing Club Aktiv 134 / 128 40% 1 01.10.2028 -
Agustín Canobbio Fluminense Aktiv 134 / 128 40% 1 01.10.2028 -
Vitaly Janelt Derby County Aktiv 148 / 163 40% 5 29.09.2028 -
Morgan Gibbs-White Chelsea Aktiv 165 / 149 40% 1 29.09.2028 -
Christos Mouzakitis Hull City Aktiv 144 / 150 40% 1 26.09.2028 -
Morgan Rogers Chelsea Aktiv 161 / 157 40% 2 24.09.2028 -
Antonio Galeano Remo Stars Aktiv 126 / 132 40% 2 20.09.2028 -
Juan Cruz de los Santos Nacional Aktiv 133 / 129 40% 1 19.09.2028 -
Rodrigo Atencio São Paulo Aktiv 134 / 134 40% 1 19.09.2028 -
Rico Lewis West Bromwich Albion Aktiv 165 / 171 40% 1 17.09.2028 -
Jonathan David Atalanta Aktiv 158 / 151 40% 1 17.09.2028 -
Yankuba Minteh Brighton Aktiv 159 / 161 40% 1 13.09.2028 -
Evander Wolverhampton Aktiv 143 / 155 40% 2 08.09.2028 -
Eric Ramires Bragantino Aktiv 128 / 134 40% 2 08.09.2028 Mehr Infos nötig
Matheus Bidu Corinthians Aktiv 133 / 119 40% 6 07.09.2028 -
Adson Paysandu Aktiv 135 / 120 40% 1 06.09.2028 -
João Pedro Chelsea Aktiv 158 / 165 40% 2 05.09.2028 -
André Wolverhampton Aktiv 159 / 146 40% 2 03.09.2028 -
Exequiel Palacios Lazio Aktiv 165 / 167 40% 4 02.09.2028 -
Carlos Baleba Norwich City Aktiv 157 / 169 40% 1 02.09.2028 -
Georginio Rutter Brighton Aktiv 152 / 159 40% 9 30.08.2028 -
Luca Langoni Columbus Crew Aktiv 129 / 123 40% 2 29.08.2028 -
Amadou Onana Aston Villa Aktiv 154 / 151 40% 3 29.08.2028 -
Musa Barrow ES Setif Aktiv 151 / 129 40% 3 25.08.2028 -
Ismaël Bennacer Boca Juniors Aktiv 144 / 144 40% 1 21.08.2028 -
Giacomo Raspadori Atalanta Aktiv 163 / 155 40% 2 20.08.2028 -
Christian Pulisic AC Milan Verhandlung 162 / 170 40% 2 20.08.2028 -
Tomáš Suslov Hellas Verona Aktiv 136 / 147 40% 2 20.08.2028 -
Sebastiano Esposito Cagliari Aktiv 149 / 160 40% 1 20.08.2028 -
Manu Koné AS Roma Aktiv 173 / 171 40% 3 18.08.2028 -
Unai Gómez Udinese Aktiv 150 / 152 40% 2 16.08.2028 -
Lazar Samardžić Cagliari Aktiv 161 / 157 40% 1 16.08.2028 -
Gabriele Zappa Cagliari Aktiv 151 / 148 40% 1 16.08.2028 -
Nicolás González Juventus Aktiv 168 / 164 40% 2 15.08.2028 -
Jayden Addai Bari Aktiv 135 / 153 40% 1 15.08.2028 -
Vitinha Genoa Aktiv 138 / 132 40% 1 13.08.2028 -
Cucho Hernández Granada Aktiv 156 / 156 40% 1 13.08.2028 -
Mattia Felici Cagliari Aktiv 135 / 144 40% 2 11.08.2028 -
Christopher Nkunku AC Milan Aktiv 168 / 157 40% 1 10.08.2028 -
Callum Hudson-Odoi Nottingham Forest Aktiv 162 / 166 40% 1 09.08.2028 -
Omari Hutchinson Nottingham Forest Aktiv 155 / 168 40% 1 09.08.2028 -
William Osula Wrexham Aktiv 136 / 135 40% 1 08.08.2028 -
Chiquinho Leixões Aktiv 135 / 126 40% 1 08.08.2028 -
Manor Solomon West Ham United Aktiv 150 / 138 40% 1 07.08.2028 -
Daichi Kamada Luton Town Aktiv 141 / 159 40% 1 10.07.2028 -
George Evans Exeter City Aktiv 116 / 121 40% 3 03.07.2028 -
Thomas Vettorel Siracusa Aktiv 105 / 118 40% 1 03.07.2028 -
Luan Freitas Fortaleza Aktiv 113 / 110 79% 1 03.06.2028 Befürworten
Kevin Fulham Aktiv 153 / 145 40% 2 31.05.2028 -
Max Johnston Derby County Aktiv 131 / 132 40% 1 29.05.2028 -
Jayden Bogle Leeds United Aktiv 148 / 137 40% 6 28.05.2028 -
Sandro Tonali Tottenham Aktiv 181 / 181 40% 1 28.05.2028 -
Alex Scott Bournemouth Aktiv 163 / 164 40% 9 27.05.2028 -
Max Bird Birmingham Aktiv 135 / 144 40% 5 26.05.2028 -
Bafodé Diakité Plymouth Argyle Aktiv 154 / 151 40% 2 26.05.2028 -
James Justin Leeds United Aktiv 142 / 146 40% 1 25.05.2028 -
Mads Hermansen West Ham United Aktiv 141 / 148 40% 2 24.05.2028 -
Joe Walsh Queens Park Rangers Aktiv 118 / 129 40% 1 24.05.2028 -
Quinten Timber Crystal Palace Aktiv 156 / 161 40% 5 23.05.2028 -
Jhon Solís Birmingham Aktiv 139 / 146 40% 1 21.05.2028 -
Manuel Ugarte Leicester City Aktiv 152 / 148 40% 6 20.05.2028 -
Nordi Mukiele Sunderland Aktiv 145 / 159 40% 2 19.05.2028 -
James Trafford Leeds United Aktiv 159 / 145 40% 3 18.05.2028 -
Lukáš Horníček Burnley Aktiv 154 / 165 40% 6 18.05.2028 -
Elia Caprile Cagliari Aktiv 153 / 149 40% 4 17.05.2028 -
Gianluca Saro Foggia Aktiv 126 / 128 40% 3 17.05.2028 -
Cesare Galeotti Trapani Aktiv 125 / 113 40% 1 17.05.2028 -
Filippo Manfrin Arzignano Aktiv 108 / 112 40% 1 15.05.2028 -
Matteo Ruggeri Middlesbrough Aktiv 152 / 163 40% 10 12.05.2028 -
Neco Williams Wrexham Aktiv 153 / 136 40% 4 12.05.2028 -
Mats Wieffer Brighton Aktiv 159 / 147 40% 2 11.05.2028 -
Welington Southampton Aktiv 140 / 135 40% 5 10.05.2028 -
Lamare Bogarde Reading Aktiv 144 / 143 40% 4 10.05.2028 -
Nathan Collins Brentford Aktiv 155 / 151 40% 2 10.05.2028 -
Callum Brittain Middlesbrough Aktiv 134 / 141 40% 4 09.05.2028 -
Odel Offiah Shrewsbury Town Aktiv 123 / 133 40% 1 07.05.2028 -
Pedro Porro Tottenham Aktiv 155 / 152 40% 2 06.05.2028 -
Xaver Schlager Nottingham Forest Aktiv 155 / 146 40% 4 04.05.2028 -
Will Dennis Milton Keynes Dons Aktiv 118 / 129 40% 2 04.05.2028 -
Timothy Castagne Stoke City Aktiv 140 / 130 40% 2 02.05.2028 -
Aaron Hickey Brentford Aktiv 150 / 156 40% 4 01.05.2028 -
Archie Gray Southampton Aktiv 160 / 153 40% 4 30.04.2028 -
Joe Rodon Blackburn Rovers Aktiv 148 / 131 40% 2 24.04.2028 -
Robert Cook Accrington Stanley Aktiv 108 / 108 40% 1 24.04.2028 -
Shea Charles Southampton Aktiv 148 / 151 40% 3 22.04.2028 -
Oliver Skipp Leicester City Aktiv 145 / 150 40% 1 21.04.2028 -
Brooke Norton-Cuffy Hull City Aktiv 149 / 142 40% 1 18.04.2028 -
Andrey Santos Bolton Wanderers Aktiv 141 / 155 40% 1 17.04.2028 -
Angeliño AS Roma Aktiv 147 / 148 40% 3 16.04.2028 -
Jarrad Branthwaite Everton Aktiv 161 / 149 40% 3 15.04.2028 -
Christos Mandas Lazio Aktiv 154 / 141 40% 2 14.04.2028 -
Anthony Patterson Wrexham Aktiv 133 / 143 40% 4 10.04.2028 -
Gabriel Brazão Santos Aktiv 135 / 134 40% 9 10.04.2028 -
Renan Lodi Atlético Mineiro Aktiv 143 / 147 40% 5 10.04.2028 -
Agustín Giay Palmeiras Aktiv 135 / 139 40% 5 10.04.2028 -
Ousmane Diomande Nottingham Forest Aktiv 155 / 150 40% 1 07.04.2028 -
Jan Paul van Hecke Tottenham Aktiv 165 / 155 40% 2 06.04.2028 -
Adam Wharton Crystal Palace Aktiv 160 / 158 40% 3 03.04.2028 -
Lucas Paquetá Flamengo Aktiv 146 / 135 40% 4 01.04.2028 -
Derry Murkin Derby County Aktiv 132 / 140 40% 1 01.04.2028 -
Sam Proctor Salford City Aktiv 122 / 116 40% 1 01.04.2028 -
Jake O'Brien Everton Aktiv 146 / 137 40% 1 28.03.2028 -
Lucas Veríssimo Santos Aktiv 138 / 143 40% 2 27.03.2028 -
Bruno Gomes Internacional Aktiv 140 / 138 40% 1 25.03.2028 -
William Cruzeiro Aktiv 137 / 139 40% 1 20.03.2028 -
Ángelo Preciado Atlético Mineiro Aktiv 127 / 121 40% 3 18.03.2028 -
Breno Bidon Corinthians Aktiv 133 / 140 40% 2 17.03.2028 -
Sven Botman Newcastle United Aktiv 163 / 165 40% 1 16.03.2028 -
Enzo Díaz Sport Recife Aktiv 139 / 138 40% 2 15.03.2028 -
Myles Roberts Cambridge United Aktiv 111 / 109 40% 2 14.03.2028 -
Paulo Henrique Vasco da Gama Aktiv 131 / 134 40% 4 14.03.2028 -
Denys Tvardovskyi Prykarpattia Aktiv 116 / 119 40% 1 14.03.2028 -
Joe Whitworth Wigan Athletic Aktiv 125 / 114 40% 2 13.03.2028 -
Jordan Amissah Burton Albion Aktiv 113 / 106 40% 1 13.03.2028 -
Masoud Hajsafi Padideh Aktiv 117 / 98 40% 1 12.03.2028 -
Léo Ortiz Flamengo Aktiv 141 / 126 40% 2 10.03.2028 -
Matheus Henrique Cruzeiro Aktiv 134 / 123 40% 2 07.03.2028 -
Fabrício Bruno Cruzeiro Aktiv 131 / 128 40% 3 05.03.2028 -
Lucas Piton Vasco da Gama Aktiv 143 / 142 40% 2 01.03.2028 -
Robert Renan Zenit Aktiv 141 / 120 40% 2 27.02.2028 -
Will Hughes Bloemfontein Celtic Aktiv 138 / 134 40% 1 26.02.2028 -
Lyanco Atlético Mineiro Aktiv 140 / 127 40% 1 22.02.2028 -
José Hurtado Bragantino Aktiv 128 / 124 40% 1 20.02.2028 -
Alexandro Bernabei Internacional Aktiv 129 / 135 40% 1 12.02.2028 -
Santiago Sosa Vasco da Gama Aktiv 132 / 121 40% 1 07.02.2028 -
Tammy Abraham Aston Villa Aktiv 146 / 135 40% 3 28.12.2027 -
Christian Kouamé Atlético Mineiro Aktiv 135 / 119 72% 1 27.12.2027 Befürworten
Thiago Brentford Aktiv 155 / 145 40% 1 27.12.2027 -
Benjamín Rollheiser Santos Aktiv 131 / 143 40% 1 13.12.2027 -
Esquerdinha Notts County Aktiv 128 / 141 40% 2 08.12.2027 -
Matteo Pérez Vinlöf Dinamo Zagreb Aktiv 117 / 143 40% 1 07.12.2027 -
Pablo Lúcio St. Gallen Aktiv 100 / 120 40% 1 07.12.2027 -
Caleb Yirenkyi Coventry City Aktiv 132 / 152 40% 1 07.12.2027 -
Seydou Fofana Pacos de Ferreira Aktiv 92 / 119 40% 1 01.12.2027 -
Daniel Johan Skaarud Sandefjord Aktiv 91 / 93 40% 1 30.11.2027 -
Fabrizio Correa Juventud Aktiv 129 / 114 40% 8 28.11.2027 -
Vladimir Nazarov Pakhtakor Aktiv 112 / 110 40% 4 28.11.2027 -
Abduvohid Ne'matov Nasaf Aktiv 127 / 142 40% 5 28.11.2027 -
Sol Brynn Bradford City Aktiv 129 / 135 40% 3 26.11.2027 -
Filip Marschall Stevenage Aktiv 116 / 133 40% 2 26.11.2027 -
Federico Losas Chacarita Juniors Aktiv 126 / 124 40% 7 24.11.2027 -
Pavlo Isenko Universitatea Craiova Aktiv 120 / 139 40% 1 24.11.2027 -
Murphy Cooper Plymouth Argyle Aktiv 127 / 136 40% 2 23.11.2027 -
Carl Rushworth Aston Villa Aktiv 160 / 154 40% 4 23.11.2027 -
Oliver Petersen Odd Aktiv 132 / 128 40% 3 23.11.2027 -
Tiago Freitas Benfica Aktiv 126 / 122 40% 2 22.11.2027 -
Josh Nichols Oldham Athletic Aktiv 120 / 111 40% 2 22.11.2027 -
Maxim Borisko CSKA Moscow Aktiv 120 / 128 40% 1 22.11.2027 -
Agustín Obregón River Plate Aktiv 112 / 122 40% 1 22.11.2027 -
Diego Romero Universitario Aktiv 123 / 128 40% 4 20.11.2027 -
Alejandro Rodríguez Melgar Aktiv 123 / 125 40% 5 20.11.2027 -
CJ dos Santos San Diego Football Club Aktiv 121 / 129 40% 7 19.11.2027 -
Novak Mićović LA Galaxy Aktiv 127 / 121 40% 7 18.11.2027 -
Ľubomír Belko Viking Aktiv 137 / 144 40% 3 18.11.2027 -
Killian Cahill Leyton Orient Aktiv 118 / 127 40% 1 18.11.2027 -
Roman Celentano FC Cincinnati Aktiv 118 / 136 40% 5 17.11.2027 -
Laureano Martínez Talleres Aktiv 115 / 114 40% 4 17.11.2027 -
Robin Roefs Sunderland Aktiv 142 / 141 40% 2 16.11.2027 -
John Pulskamp Sporting Kansas City Aktiv 116 / 106 40% 9 15.11.2027 -
Mikheil Makatsaria Torpedo Kutaisi Aktiv 116 / 123 40% 1 14.11.2027 -
Radek Vítek Middlesbrough Aktiv 145 / 142 40% 2 13.11.2027 -
Andrés Gómez Vasco da Gama Aktiv 132 / 134 40% 6 13.11.2027 -
Frankarlos Benítez Caracas Aktiv 110 / 107 40% 1 13.11.2027 -
Fer López Wolverhampton Aktiv 132 / 149 40% 1 13.11.2027 -
Reda Khadra Qarabag Aktiv 134 / 138 40% 1 13.11.2027 -
Lautaro Maldonado Instituto Aktiv 121 / 124 40% 4 11.11.2027 -
Marcel Ruiz Crystal Palace Aktiv 151 / 147 40% 1 11.11.2027 -
Nicolás Sumavil Platense Aktiv 121 / 127 40% 5 07.11.2027 -
Luciano Jachfe Nueva Chicago Aktiv 116 / 121 40% 2 07.11.2027 -
Nazareno Roselli Defensa y Justicia Aktiv 119 / 111 40% 1 02.11.2027 -
Cristopher Varela Deportivo La Guaira Aktiv 125 / 121 40% 3 29.10.2027 -
Pedro de la Vega Columbus Crew Aktiv 143 / 129 40% 3 28.10.2027 -
Luka Gavran Toronto FC Aktiv 119 / 124 40% 10 26.10.2027 -
Giorgi Mamardashvili Liverpool Aktiv 163 / 159 40% 3 24.10.2027 -
Ángel Maciel Tacuarembo Aktiv 110 / 98 40% 5 22.10.2027 -
Gonçalo Oliveira Benfica Aktiv 120 / 110 40% 3 21.10.2027 -
Jonny Shore New York City Aktiv 94 / 109 40% 1 21.10.2027 -
Lucas Bergvall Tottenham Aktiv 159 / 161 40% 2 20.10.2027 -
Árni Marinó Einarsson IA Aktiv 116 / 123 40% 1 18.10.2027 -
Matheus Cunha Cruzeiro Aktiv 138 / 135 40% 1 17.10.2027 -
Victor Hernandez Santa Fe Aktiv 118 / 122 40% 2 15.10.2027 -
Maurício Palmeiras Aktiv 144 / 132 40% 1 15.10.2027 -
Gabriel Grando São Paulo Aktiv 135 / 139 40% 4 11.10.2027 -
Josh Keeley Luton Town Aktiv 143 / 129 40% 3 09.10.2027 -
Bruno Antúnez Boston River Aktiv 112 / 109 40% 3 09.10.2027 -
Patrick Schulte Columbus Crew Aktiv 127 / 133 40% 2 06.10.2027 -
Zion Suzuki Aston Villa Aktiv 158 / 154 40% 2 02.10.2027 -
Daniil Ustimenko Tobol Aktiv 112 / 113 40% 1 01.10.2027 -
Jhon Jhon Zenit Aktiv 142 / 117 40% 1 01.10.2027 -
Mads Kikkenborg Molde Aktiv 113 / 130 40% 6 28.09.2027 -
Noni Madueke Arsenal Aktiv 165 / 155 40% 1 22.09.2027 -
Temirlan Anarbekov Kairat Aktiv 129 / 140 40% 1 20.09.2027 -
Yehor Yarmoliuk Brentford Aktiv 145 / 137 40% 1 19.09.2027 -
Amine Adli Bournemouth Aktiv 157 / 150 40% 1 19.09.2027 -
Gor Matinyan Urartu Aktiv 101 / 110 40% 1 16.09.2027 -
Isaac Boehmer Vancouver Whitecaps Aktiv 100 / 114 40% 3 10.09.2027 -
Miguel Acosta Argentinos Juniors Aktiv 116 / 121 40% 1 08.09.2027 -
Ruly Padova Aktiv 116 / 108 40% 2 30.08.2027 -
Oufa Shobeir MC Alger Aktiv 128 / 139 40% 1 30.08.2027 -
Piero Hincapié Arsenal Aktiv 164 / 162 40% 1 27.08.2027 -
James Garner Everton Aktiv 146 / 153 40% 1 27.08.2027 -
Souza Tottenham Aktiv 133 / 135 40% 1 26.08.2027 -
Azizbek To'lqinbekov Bunyodkor Aktiv 96 / 93 40% 1 26.08.2027 -
Abdul Fatawu Leicester City Aktiv 148 / 127 40% 1 22.08.2027 -
Liel Abada Inter Miami CF Aktiv 127 / 151 40% 1 21.08.2027 -
Mohammed Abu-Nil Bnei Sakhnin Aktiv 102 / 107 40% 1 19.08.2027 -
Francesco D'Alterio Ternana Aktiv 111 / 100 40% 2 18.08.2027 -
Adrián Bernabé Parma Aktiv 146 / 131 40% 1 17.08.2027 -
Antonio Vergara Napoli Aktiv 143 / 144 40% 1 16.08.2027 -
Billy Gilmour Napoli Aktiv 144 / 167 40% 1 16.08.2027 -
Matías Soulé AS Roma Aktiv 160 / 148 40% 1 15.08.2027 -
Mile Svilar AS Roma Aktiv 174 / 157 40% 1 13.08.2027 -
Arthur Augusto Semen Padang Aktiv 117 / 117 40% 1 13.08.2027 -
Hans Nicolussi Caviglia Parma Aktiv 133 / 126 40% 1 13.08.2027 -
Ludovico Del Sorbo Sorrento Aktiv 111 / 118 40% 1 11.08.2027 -
Nicolò Fagioli Fiorentina Aktiv 138 / 135 40% 1 11.08.2027 -
William Rovida Pro Patria Aktiv 107 / 128 40% 1 09.08.2027 -
Kevin Pinto Benfica Aktiv 96 / 102 40% 2 08.08.2027 -
Olaniyi Saheed Kwara United Aktiv 97 / 78 40% 1 08.08.2027 -
Jacob Ramsey Newcastle United Aktiv 148 / 169 40% 1 06.08.2027 -
Charlie Gray Fleetwood Town Aktiv 95 / 90 40% 1 20.07.2027 -
Maldini Kacurri Grimsby Town Aktiv 96 / 88 40% 1 21.06.2027 -
Martim Cunha Porto Aktiv 108 / 123 40% 1 21.06.2027 -
Sascha Britschgi AC Milan Aktiv 114 / 146 40% 1 07.06.2027 -
Joe Gelhardt Hull City Aktiv 139 / 120 40% 11 31.05.2027 -
Taty Castellanos West Ham United Aktiv 154 / 133 40% 3 31.05.2027 -
Lorenzo Colombo Genoa Aktiv 136 / 143 40% 6 26.05.2027 -
Eddie Nketiah Crystal Palace Aktiv 150 / 135 40% 4 23.05.2027 -
Callum O'Hare Sheffield United Aktiv 135 / 126 40% 11 22.05.2027 -
Ilyas Ansah Hull City Aktiv 129 / 134 40% 5 22.05.2027 -
Hwang Hee-Chan Wolverhampton Aktiv 143 / 142 40% 4 21.05.2027 -
Che Adams Torino Aktiv 148 / 150 40% 1 20.05.2027 -
Gianluca Scamacca Atalanta Aktiv 148 / 160 40% 3 19.05.2027 -
Yoane Wissa Newcastle United Aktiv 133 / 143 40% 10 17.05.2027 -
Oli McBurnie Hull City Aktiv 143 / 142 40% 6 15.05.2027 -
Zian Flemming Ipswich Town Aktiv 138 / 138 40% 5 13.05.2027 -
Tyrese Campbell Sheffield United Aktiv 128 / 125 40% 2 13.05.2027 -
Mohamed-Ali Cho Hull City Aktiv 144 / 140 40% 10 09.05.2027 -
Jørgen Strand Larsen Brighton Aktiv 151 / 131 40% 1 07.05.2027 -
Nicolò Zaniolo Udinese Aktiv 146 / 124 40% 2 04.05.2027 -
Jarrod Bowen West Ham United Aktiv 160 / 161 40% 1 04.05.2027 -
Rodrigo Muniz Fulham Aktiv 140 / 148 40% 2 19.04.2027 -
Bertuğ Yıldırım Basaksehir Aktiv 136 / 115 40% 1 16.04.2027 -
Arthur Cabral Botafogo Aktiv 138 / 139 40% 17 11.04.2027 -
Claudio Spinelli Vasco da Gama Aktiv 131 / 136 40% 11 10.04.2027 -
Santiago Pierotti Lecce Aktiv 135 / 136 40% 3 09.04.2027 -
Aune Heggebø West Bromwich Albion Aktiv 119 / 131 40% 2 06.04.2027 -
Domagoj Drožđek Tractor Aktiv 121 / 126 40% 4 05.04.2027 -
Keinan Davis Udinese Aktiv 138 / 143 40% 1 04.04.2027 -
Oh Hyeon-Gyu Besiktas Aktiv 116 / 124 40% 1 03.04.2027 -
Jackson Muleka Konyaspor Aktiv 137 / 139 40% 2 01.04.2027 -
Sorriso Famalicao Aktiv 135 / 115 40% 3 27.03.2027 -
Brian Brobbey Sunderland Aktiv 142 / 149 40% 1 27.03.2027 -
Mateo Pellegrino Fiorentina Aktiv 129 / 142 40% 1 25.03.2027 -
Yanis Begraoui Estoril Praia Aktiv 123 / 151 40% 4 24.03.2027 -
Steven Bergwijn Al-Ittihad Aktiv 159 / 148 40% 4 20.03.2027 -
Leo Castledine Middlesbrough Aktiv 136 / 114 40% 1 19.03.2027 -
Roberto Fernández Braga Aktiv 137 / 158 40% 14 11.03.2027 -
Elijah Adebayo Luton Town Aktiv 117 / 123 40% 1 23.02.2027 -
Yousef Salech Cardiff City Aktiv 117 / 124 40% 2 21.02.2027 -
Ismael Díaz Leon Aktiv 121 / 138 40% 6 16.02.2027 -
Thierry Ambrose KV Kortrijk Aktiv 120 / 138 40% 2 15.02.2027 -
Figueiredo Alverca Aktiv 136 / 134 40% 7 12.02.2027 -
Juninho Pumas UNAM Aktiv 125 / 141 40% 5 08.02.2027 -
Carlos Vinícius Grêmio Aktiv 143 / 124 40% 4 08.02.2027 -
Fran Navarro Braga Aktiv 129 / 113 40% 5 07.02.2027 -
Hugo Cuypers Monterrey Aktiv 134 / 120 40% 2 07.02.2027 -
Esteban Lepaul Stade Rennais Aktiv 134 / 138 40% 1 02.02.2027 -
Gustavo Silva Vitoria Guimaraes Aktiv 116 / 123 40% 6 29.01.2027 -
Dwight McNeil Crystal Palace Aktiv 149 / 127 40% 3 24.01.2027 -
Isidro Pitta Bragantino Aktiv 137 / 116 40% 4 22.01.2027 -
Mateo Cassierra Atlético Mineiro Aktiv 135 / 119 40% 6 22.01.2027 -
Negueba Mirassol Aktiv 130 / 129 40% 3 20.01.2027 -
José Manuel López Palmeiras Aktiv 128 / 146 40% 2 15.01.2027 -
Dodi Lukébakio Benfica Aktiv 138 / 149 40% 8 06.01.2027 -
Memphis Depay Corinthians Aktiv 138 / 131 69% 1 14.12.2026 Befürworten
Víctor Gómez Braga Aktiv 144 / 122 40% 1 14.12.2026 -
Justo Giani Umraniyespor Aktiv 114 / 111 40% 1 02.12.2026 -
Roberto Alvarado Borussia Mönchengladbach Aktiv 139 / 139 66% 1 01.12.2026 Befürworten
José Sampaio Vizela Aktiv 115 / 101 40% 1 01.12.2026 -
Mathias De Amorim Famalicao Aktiv 128 / 126 40% 1 01.12.2026 -
Facundo Colidio Vasco da Gama Aktiv 131 / 115 40% 1 29.11.2026 -
Henrique Araújo Casa Pia Aktiv 120 / 112 40% 2 24.11.2026 -
Vinícius Lopes Santa Clara Aktiv 112 / 133 40% 6 24.11.2026 -
Tamble Monteiro Rio Ave Aktiv 126 / 117 40% 3 23.11.2026 -
Zé Leite Moreirense Aktiv 124 / 113 40% 2 21.11.2026 -
Ianis Stoica Estrela da Amadora Aktiv 123 / 125 40% 3 21.11.2026 -
Morgan Guilavogui Real Salt Lake Aktiv 131 / 107 40% 2 19.11.2026 -
Rafael Navarro Famalicao Aktiv 119 / 138 40% 3 17.11.2026 -
Erik Lira Cruz Azul Aktiv 129 / 116 40% 1 17.11.2026 -
Sergi Altimira Sporting CP Aktiv 136 / 132 40% 1 17.11.2026 -
Nehuén Pérez Porto Aktiv 129 / 141 40% 1 17.11.2026 -
Martín Tejón Maritimo Aktiv 119 / 108 40% 1 13.11.2026 -
André Lacximicant Estoril Praia Aktiv 115 / 119 40% 2 09.11.2026 -
Luka Jović CFR Cluj Aktiv 135 / 149 40% 1 09.11.2026 -
Dylan Nandín Arouca Aktiv 109 / 102 40% 1 09.11.2026 -
Alejandro Piedrahita Deportivo Pereira Aktiv 120 / 114 40% 2 08.11.2026 -
Lucas Duarte Felgueiras Aktiv 103 / 94 40% 1 08.11.2026 -
Petar Musa FC Dallas Aktiv 139 / 121 40% 5 30.10.2026 -
Wilson Isidor Sunderland Aktiv 129 / 147 40% 4 26.10.2026 -
Pedro Flamengo Aktiv 139 / 136 40% 6 25.10.2026 -
Wessam Abou Ali Columbus Crew Aktiv 126 / 134 40% 3 24.10.2026 -
Yassin Fortuné Vizela Aktiv 98 / 123 40% 1 21.10.2026 -
Guilherme Neiva AVS Aktiv 104 / 104 40% 1 16.10.2026 -
Kévin Denkey FC Cincinnati Aktiv 129 / 116 40% 1 15.10.2026 -
Tomás Molina Argentinos Juniors Aktiv 119 / 133 40% 1 15.10.2026 -
Gabriel Silva Braga Aktiv 120 / 121 40% 1 11.10.2026 -
Alexis Vega Feyenoord Aktiv 133 / 140 40% 2 10.10.2026 -
Myrto Uzuni Austin FC Aktiv 125 / 135 40% 1 03.10.2026 -
Victor Olatunji Real Salt Lake Aktiv 109 / 125 40% 1 03.10.2026 -
Jordan Morris Seattle Sounders Aktiv 119 / 108 40% 2 30.09.2026 -
Nicolò Tresoldi Club Brugge Aktiv 119 / 117 40% 1 30.09.2026 -
Talles Magno New York City Aktiv 118 / 123 40% 3 27.09.2026 -
Alexey Miranchuk Atlanta United FC Aktiv 135 / 156 40% 3 25.09.2026 -
Dejan Joveljić Seattle Sounders Aktiv 121 / 145 40% 1 22.09.2026 -
Jorge Aguirre Torreense Aktiv 108 / 95 40% 1 21.09.2026 -
Kelvin Yeboah Minnesota United FC Aktiv 115 / 133 40% 1 20.09.2026 -
Leo Ceara Kashima Antlers Aktiv 130 / 136 40% 1 07.09.2026 -
Timo Werner San Jose Earthquakes Aktiv 122 / 111 40% 2 05.09.2026 -
Ricardo Horta Braga Aktiv 157 / 132 40% 3 04.09.2026 -
Josh Sargent Toronto FC Aktiv 138 / 124 40% 1 03.09.2026 -
Rodrigo Castillo Fluminense Aktiv 125 / 132 40% 2 01.09.2026 -
Antonio Sanabria Internacional Aktiv 136 / 118 40% 1 31.08.2026 -
Luis Suárez Sporting CP Aktiv 141 / 138 40% 2 20.08.2026 -
Umar Sadiq Valencia Aktiv 142 / 143 40% 1 10.08.2026 -
Jonathan Dubasin Osasuna Aktiv 146 / 136 40% 1 08.08.2026 -
Tani Oluwaseyi Villarreal Aktiv 142 / 139 40% 1 06.08.2026 -
Joshua Zirkzee Manchester United Aktiv 131 / 134 40% 1 05.08.2026 -
Jorge De Frutos Rayo Vallecano Aktiv 158 / 162 40% 1 04.08.2026 -
Mikel Oyarzábal Real Sociedad Aktiv 145 / 154 40% 1 03.08.2026 -